Time;durP1;ratioP1;P1;durP2;ratioP2;P2;SDS_P1;SDS_P2;PMS_P1;PMS_P2;Temp;Humidity;BMP_temperature;BMP_pressure;BME280_temperature;BME280_humidity;BME280_pressure;Samples;Min_cycle;Max_cycle;Signal;HPM_P1;HPM_P2
2023/02/18 00:01:58;;;;;;;17.40;8.50;;;;;;;-8.80;100.00;100603.52;105734;1253;61176;-57
2023/02/18 00:04:30;;;;;;;16.80;9.70;;;;;;;-8.83;100.00;100594.83;105610;1256;75905;-54
2023/02/18 00:06:59;;;;;;;16.80;8.60;;;;;;;-8.84;100.00;100593.70;105805;1254;68674;-54
2023/02/18 00:09:29;;;;;;;16.50;8.00;;;;;;;-8.86;100.00;100588.20;105892;1254;73157;-55
2023/02/18 00:11:58;;;;;;;16.20;8.30;;;;;;;-8.88;100.00;100584.74;105821;1254;61334;-55
2023/02/18 00:14:27;;;;;;;17.60;8.10;;;;;;;-8.91;100.00;100585.02;105848;1254;62307;-55
2023/02/18 00:16:55;;;;;;;16.60;8.00;;;;;;;-8.96;100.00;100584.15;105678;1254;74542;-56
2023/02/18 00:19:24;;;;;;;16.90;8.90;;;;;;;-8.99;100.00;100589.16;105865;1259;68745;-56
2023/02/18 00:21:53;;;;;;;15.20;7.90;;;;;;;-9.01;100.00;100590.91;105642;1254;74208;-56
2023/02/18 00:24:22;;;;;;;16.00;8.60;;;;;;;-9.03;100.00;100586.59;105952;1254;62889;-55
2023/02/18 00:26:51;;;;;;;16.70;8.80;;;;;;;-9.04;100.00;100583.59;105804;1254;61681;-55
2023/02/18 00:29:20;;;;;;;18.30;8.20;;;;;;;-9.05;100.00;100582.45;105802;1254;76921;-55
2023/02/18 00:31:50;;;;;;;17.20;9.30;;;;;;;-9.07;100.00;100570.88;105683;1256;67978;-55
2023/02/18 00:34:20;;;;;;;16.50;7.80;;;;;;;-9.08;100.00;100564.33;105607;1254;74143;-54
2023/02/18 00:36:48;;;;;;;17.50;9.00;;;;;;;-9.08;100.00;100566.88;105973;1256;61692;-54
2023/02/18 00:39:17;;;;;;;17.90;8.70;;;;;;;-9.10;100.00;100560.19;106056;1256;61378;-57
2023/02/18 00:41:45;;;;;;;17.10;8.90;;;;;;;-9.11;100.00;100553.49;105604;1256;76782;-54
2023/02/18 00:44:15;;;;;;;15.40;8.70;;;;;;;-9.12;100.00;100550.52;105801;1255;68837;-55
2023/02/18 00:46:46;;;;;;;16.70;8.70;;;;;;;-9.13;100.00;100540.63;105950;1256;74263;-55
2023/02/18 00:49:15;;;;;;;16.00;9.00;;;;;;;-9.15;100.00;100541.34;106079;1254;62436;-56
2023/02/18 00:51:44;;;;;;;18.30;9.40;;;;;;;-9.18;100.00;100537.09;105585;1256;61200;-55
2023/02/18 00:54:12;;;;;;;19.80;9.30;;;;;;;-9.21;100.00;100539.70;105682;1255;75448;-54
2023/02/18 00:56:41;;;;;;;16.60;8.40;;;;;;;-9.24;100.00;100539.97;105825;1254;68902;-55
2023/02/18 00:59:09;;;;;;;21.00;8.10;;;;;;;-9.26;100.00;100546.94;105609;1259;74178;-56
2023/02/18 01:01:38;;;;;;;16.40;9.20;;;;;;;-9.28;100.00;100545.00;105546;1254;61979;-56
2023/02/18 01:04:08;;;;;;;16.40;8.30;;;;;;;-9.29;100.00;100537.43;105693;1254;61247;-55
2023/02/18 01:06:37;;;;;;;15.00;8.40;;;;;;;-9.29;100.00;100527.54;105669;1254;76253;-55
2023/02/18 01:09:06;;;;;;;17.40;8.10;;;;;;;-9.31;100.00;100520.69;105672;1256;67628;-56
2023/02/18 01:11:35;;;;;;;18.30;8.30;;;;;;;-9.35;100.00;100512.05;105854;1257;74187;-56
2023/02/18 01:14:04;;;;;;;13.80;7.10;;;;;;;-9.40;100.00;100505.66;105765;1257;61807;-54
2023/02/18 01:16:36;;;;;;;19.40;9.10;;;;;;;-9.44;100.00;100503.27;105450;1256;61942;-56
2023/02/18 01:19:08;;;;;;;19.20;9.50;;;;;;;-9.48;100.00;100498.54;105812;1254;76160;-55
2023/02/18 01:21:38;;;;;;;19.90;9.70;;;;;;;-9.53;100.00;100498.17;105843;1254;68424;-57
2023/02/18 01:24:07;;;;;;;22.30;10.70;;;;;;;-9.58;100.00;100490.95;105739;1254;74256;-55
2023/02/18 01:26:36;;;;;;;20.00;9.90;;;;;;;-9.62;100.00;100484.85;105859;1256;62762;-56
2023/02/18 01:29:04;;;;;;;16.30;10.10;;;;;;;-9.66;100.00;100486.48;105827;1256;61855;-55
2023/02/18 01:31:33;;;;;;;18.80;9.70;;;;;;;-9.68;100.00;100489.77;105882;1256;76199;-58
2023/02/18 01:34:03;;;;;;;18.40;9.40;;;;;;;-9.71;100.00;100484.48;105791;1256;67457;-55
2023/02/18 01:36:33;;;;;;;16.80;8.70;;;;;;;-9.73;100.00;100479.34;105863;1256;73967;-55
2023/02/18 01:39:04;;;;;;;18.50;10.20;;;;;;;-9.76;100.00;100480.77;105669;1254;62888;-55
2023/02/18 01:41:34;;;;;;;18.00;8.30;;;;;;;-9.80;100.00;100481.55;105675;1253;60477;-54
2023/02/18 01:44:23;;;;;;;17.10;8.70;;;;;;;-9.84;100.00;100475.98;105827;1254;75196;-54
2023/02/18 01:46:51;;;;;;;16.50;8.90;;;;;;;-9.87;100.00;100473.22;105567;1256;67726;-55
2023/02/18 01:49:38;;;;;;;16.90;8.70;;;;;;;-9.89;100.00;100469.58;105701;1256;72545;-56
2023/02/18 01:52:09;;;;;;;18.40;8.40;;;;;;;-9.91;100.00;100464.13;105808;1257;61564;-54
2023/02/18 01:54:47;;;;;;;18.50;9.80;;;;;;;-9.93;100.00;100465.67;105821;1256;61234;-57
2023/02/18 01:57:17;;;;;;;18.10;9.20;;;;;;;-9.97;100.00;100462.41;105802;1255;74860;-55
2023/02/18 01:59:49;;;;;;;19.90;10.00;;;;;;;-9.99;100.00;100454.09;105771;1254;67640;-57
2023/02/18 02:02:23;;;;;;;17.10;8.40;;;;;;;-10.01;100.00;100452.48;105799;1254;74452;-58
2023/02/18 02:04:51;;;;;;;20.30;9.60;;;;;;;-10.06;100.00;100448.56;105689;1258;61688;-56
2023/02/18 02:07:21;;;;;;;16.20;9.60;;;;;;;-10.08;100.00;100440.75;105869;1254;61655;-57
2023/02/18 02:09:50;;;;;;;16.60;8.60;;;;;;;-10.11;100.00;100442.86;105746;1256;75576;-55
2023/02/18 02:12:32;;;;;;;17.20;8.90;;;;;;;-10.15;100.00;100449.69;105831;1259;67052;-56
2023/02/18 02:15:12;;;;;;;17.00;9.60;;;;;;;-10.18;100.00;100451.47;105799;1256;73657;-56
2023/02/18 02:18:00;;;;;;;;;;;;;;;-10.20;100.00;100446.01;105497;1257;61366;-55
2023/02/18 02:20:36;;;;;;;18.00;8.40;;;;;;;-10.21;100.00;100439.99;105837;1254;61116;-56
2023/02/18 02:23:16;;;;;;;21.90;9.70;;;;;;;-10.23;100.00;100439.04;105694;1256;75482;-53
2023/02/18 02:26:06;;;;;;;15.70;8.50;;;;;;;-10.24;100.00;100434.70;105595;1254;68117;-54
2023/02/18 02:28:50;;;;;;;20.40;9.90;;;;;;;-10.26;100.00;100428.91;105596;1254;74101;-54
2023/02/18 02:31:18;;;;;;;16.10;8.40;;;;;;;-10.27;100.00;100428.26;105501;1254;62392;-54
2023/02/18 02:34:15;;;;;;;16.90;7.50;;;;;;;-10.28;100.00;100429.33;106040;1254;61625;-56
2023/02/18 02:36:55;;;;;;;16.60;8.20;;;;;;;-10.32;100.00;100425.55;105267;1259;76806;-54
2023/02/18 02:39:42;;;;;;;18.20;9.30;;;;;;;-10.35;100.00;100427.33;105823;1253;68673;-55
2023/02/18 02:42:45;;;;;;;21.20;9.80;;;;;;;-10.37;100.00;100429.59;105724;1256;74055;-55
2023/02/18 02:45:18;;;;;;;17.50;8.50;;;;;;;-10.38;100.00;100423.55;105548;1261;62503;-54
2023/02/18 02:48:11;;;;;;;13.70;8.00;;;;;;;-10.40;100.00;100425.13;105810;1254;62328;-55
2023/02/18 02:51:07;;;;;;;14.00;8.00;;;;;;;-10.44;100.00;100423.41;105418;1253;76267;-54
2023/02/18 02:53:38;;;;;;;18.90;9.10;;;;;;;-10.48;100.00;100424.39;105304;1269;67730;-58
2023/02/18 02:56:16;;;;;;;17.00;8.30;;;;;;;-10.50;100.00;100428.28;105184;1260;74243;-53
2023/02/18 02:58:44;;;;;;;18.90;8.60;;;;;;;-10.50;100.00;100421.23;105395;1259;62038;-56
2023/02/18 03:01:32;;;;;;;18.40;10.20;;;;;;;-10.50;100.00;100421.58;105674;1254;61257;-56
2023/02/18 03:04:19;;;;;;;18.80;10.70;;;;;;;-10.49;100.00;100420.88;105473;1254;75984;-54
2023/02/18 03:07:14;;;;;;;19.90;10.40;;;;;;;-10.48;100.00;100419.66;105327;1259;67666;-55
2023/02/18 03:10:01;;;;;;;17.70;9.40;;;;;;;-10.45;100.00;100420.58;105331;1260;74286;-56
2023/02/18 03:12:45;;;;;;;19.00;9.60;;;;;;;-10.43;100.00;100419.85;105722;1260;62150;-54
2023/02/18 03:15:34;;;;;;;21.20;10.00;;;;;;;-10.40;100.00;100416.09;105421;1254;61892;-57
2023/02/18 03:18:28;;;;;;;17.20;9.50;;;;;;;-10.35;100.00;100408.35;105402;1257;75556;-54
2023/02/18 03:21:20;;;;;;;15.60;8.80;;;;;;;-10.31;100.00;100400.15;105650;1254;67459;-54
2023/02/18 03:24:00;;;;;;;18.50;10.20;;;;;;;-10.27;100.00;100395.33;105548;1253;74189;-53
2023/02/18 03:26:30;;;;;;;18.30;9.60;;;;;;;-10.25;100.00;100387.89;105532;1259;62088;-55
2023/02/18 03:29:01;;;;;;;18.90;10.00;;;;;;;-10.23;100.00;100383.23;105354;1260;61190;-55
2023/02/18 03:31:32;;;;;;;19.00;10.30;;;;;;;-10.21;100.00;100381.85;105651;1254;76144;-55
2023/02/18 03:34:06;;;;;;;22.70;10.20;;;;;;;-10.20;100.00;100376.60;105827;1259;68793;-58
2023/02/18 03:36:36;;;;;;;19.50;9.80;;;;;;;-10.19;100.00;100374.56;105441;1255;74452;-54
2023/02/18 03:39:17;;;;;;;17.90;9.20;;;;;;;-10.17;100.00;100375.65;105370;1260;64086;-55
2023/02/18 03:41:45;;;;;;;23.90;10.00;;;;;;;-10.14;100.00;100368.69;105291;1260;61838;-57
2023/02/18 03:44:13;;;;;;;21.20;10.60;;;;;;;-10.13;100.00;100362.08;105389;1260;76342;-58
2023/02/18 03:46:42;;;;;;;18.30;9.60;;;;;;;-10.11;100.00;100355.48;105649;1259;68195;-56
2023/02/18 03:49:12;;;;;;;19.30;9.70;;;;;;;-10.08;100.00;100354.19;105746;1258;74166;-54
2023/02/18 03:51:41;;;;;;;18.80;10.30;;;;;;;-10.05;100.00;100355.61;105825;1260;62555;-56
2023/02/18 03:54:09;;;;;;;18.40;9.40;;;;;;;-10.02;100.00;100363.09;105556;1258;61576;-57
2023/02/18 03:56:41;;;;;;;;;;;;;;;-9.99;100.00;100362.17;105551;1259;75976;-54
2023/02/18 03:59:10;;;;;;;16.80;9.50;;;;;;;-9.97;100.00;100363.10;105648;1258;68086;-54
2023/02/18 04:01:39;;;;;;;18.00;9.90;;;;;;;-9.95;100.00;100355.44;106192;1258;74135;-56
2023/02/18 04:04:07;;;;;;;21.80;10.20;;;;;;;-9.92;100.00;100351.66;106032;1254;62645;-55
2023/02/18 04:06:37;;;;;;;21.40;10.20;;;;;;;-9.88;100.00;100351.35;105842;1259;61730;-56
2023/02/18 04:09:07;;;;;;;26.80;10.50;;;;;;;-9.85;100.00;100345.87;105859;1256;73954;-56
2023/02/18 04:11:37;;;;;;;20.10;9.80;;;;;;;-9.83;100.00;100340.08;106115;1257;67561;-57
2023/02/18 04:14:06;;;;;;;25.60;12.00;;;;;;;-9.80;100.00;100332.41;105474;1258;74189;-55
2023/02/18 04:16:36;;;;;;;26.20;12.10;;;;;;;-9.77;100.00;100326.60;105819;1254;62499;-54
2023/02/18 04:19:05;;;;;;;22.00;11.80;;;;;;;-9.74;100.00;100325.67;105743;1256;61168;-56
2023/02/18 04:21:33;;;;;;;26.80;10.60;;;;;;;-9.72;100.00;100319.73;105954;1257;76212;-57
2023/02/18 04:24:02;;;;;;;24.20;11.70;;;;;;;-9.70;100.00;100315.94;105510;1257;67145;-54
2023/02/18 04:26:31;;;;;;;18.30;10.00;;;;;;;-9.68;100.00;100315.54;105975;1256;73096;-55
2023/02/18 04:29:00;;;;;;;16.70;9.60;;;;;;;-9.66;100.00;100309.23;105939;1256;61462;-56
2023/02/18 04:31:28;;;;;;;21.10;11.20;;;;;;;-9.65;100.00;100302.33;106018;1257;62298;-55
2023/02/18 04:33:58;;;;;;;20.90;10.40;;;;;;;-9.64;100.00;100299.42;105832;1257;75152;-55
2023/02/18 04:36:26;;;;;;;17.80;10.30;;;;;;;-9.63;100.00;100301.05;105798;1256;67633;-54
2023/02/18 04:38:55;;;;;;;22.20;11.70;;;;;;;-9.61;100.00;100304.48;105805;1255;73263;-54
2023/02/18 04:41:23;;;;;;;22.10;10.60;;;;;;;-9.57;100.00;100305.19;106110;1256;61333;-57
2023/02/18 04:43:54;;;;;;;19.80;10.10;;;;;;;-9.52;100.00;100304.21;105679;1259;61345;-54
2023/02/18 04:46:22;;;;;;;20.30;10.90;;;;;;;-9.49;100.00;100304.27;105889;1256;75874;-54
2023/02/18 04:48:51;;;;;;;22.10;10.50;;;;;;;-9.48;100.00;100302.05;105864;1257;68430;-54
2023/02/18 04:59:12;;;;;;;21.30;10.70;;;;;;;-9.30;100.00;100286.58;102290;1292;601139;-56
2023/02/18 05:01:41;;;;;;;22.40;11.50;;;;;;;-9.24;100.00;100285.68;104971;1268;59701;-56
2023/02/18 05:04:10;;;;;;;21.60;11.80;;;;;;;-9.19;100.00;100281.60;104803;1266;60653;-55
2023/02/18 05:06:41;;;;;;;25.00;12.40;;;;;;;-9.13;100.00;100274.83;105323;1263;72847;-55
2023/02/18 05:09:10;;;;;;;26.30;13.10;;;;;;;-9.08;100.00;100276.66;104942;1263;67963;-56
2023/02/18 05:11:39;;;;;;;21.80;11.80;;;;;;;-9.03;100.00;100276.80;104925;1263;203479;-56
2023/02/18 05:14:07;;;;;;;19.40;10.80;;;;;;;-8.98;100.00;100281.34;105180;1265;62500;-55
2023/02/18 05:16:43;;;;;;;26.00;12.40;;;;;;;-8.96;100.00;100274.02;105450;1261;61832;-56
2023/02/18 05:19:13;;;;;;;21.80;11.40;;;;;;;-8.92;100.00;100271.34;105924;1257;73555;-55
2023/02/18 05:21:42;;;;;;;22.30;12.00;;;;;;;-8.85;100.00;100271.41;105907;1255;67599;-56
2023/02/18 05:24:10;;;;;;;24.10;12.80;;;;;;;-8.79;100.00;100273.20;105831;1251;74189;-57
2023/02/18 05:26:39;;;;;;;24.00;12.30;;;;;;;-8.75;100.00;100272.34;105889;1253;62100;-56
2023/02/18 05:29:08;;;;;;;22.90;11.10;;;;;;;-8.69;100.00;100268.77;106104;1254;61301;-57
2023/02/18 05:31:37;;;;;;;23.40;11.50;;;;;;;-8.66;100.00;100261.23;105841;1251;73123;-55
2023/02/18 05:34:07;;;;;;;19.10;10.90;;;;;;;-8.62;100.00;100253.31;105802;1254;68478;-54
2023/02/18 05:36:36;;;;;;;22.70;12.30;;;;;;;-8.58;100.00;100247.10;106331;1253;73221;-56
2023/02/18 05:39:07;;;;;;;24.30;12.80;;;;;;;-8.55;100.00;100236.87;106017;1253;62224;-55
2023/02/18 05:41:36;;;;;;;22.20;11.70;;;;;;;-8.56;100.00;100235.37;105980;1253;61634;-55
2023/02/18 05:46:52;;;;;;;23.50;13.00;;;;;;;-8.51;100.00;100222.20;105929;1253;69174;-56
2023/02/18 05:49:20;;;;;;;22.50;12.50;;;;;;;-8.48;100.00;100223.09;105739;1251;74038;-54
2023/02/18 05:51:49;;;;;;;25.70;12.30;;;;;;;-8.42;100.00;100225.03;105961;1253;62505;-56
2023/02/18 05:54:18;;;;;;;23.10;12.30;;;;;;;-8.36;100.00;100224.23;106359;1251;61729;-55
2023/02/18 05:56:46;;;;;;;23.60;12.90;;;;;;;-8.32;100.00;100219.52;105666;1254;74524;-56
2023/02/18 05:59:15;;;;;;;24.70;13.40;;;;;;;-8.27;100.00;100218.65;105717;1254;68861;-55
2023/02/18 06:01:44;;;;;;;22.30;13.00;;;;;;;-8.21;100.00;100218.56;105690;1253;74177;-55
2023/02/18 06:04:13;;;;;;;25.30;13.40;;;;;;;-8.15;100.00;100214.77;106060;1255;61679;-56
2023/02/18 06:06:43;;;;;;;24.90;12.90;;;;;;;-8.08;100.00;100212.94;105858;1251;61645;-53
2023/02/18 06:09:12;;;;;;;27.90;14.00;;;;;;;-8.00;100.00;100208.23;105998;1251;74880;-54
2023/02/18 06:11:40;;;;;;;22.10;12.60;;;;;;;-7.95;100.00;100202.61;105904;1252;68618;-54
2023/02/18 06:14:09;;;;;;;25.80;14.30;;;;;;;-7.88;100.00;100194.02;105967;1251;73359;-55
2023/02/18 06:16:38;;;;;;;26.30;14.20;;;;;;;-7.79;100.00;100187.25;106064;1253;62623;-56
2023/02/18 06:19:06;;;;;;;25.50;14.40;;;;;;;-7.72;100.00;100181.52;105862;1254;61496;-54
2023/02/18 06:21:36;;;;;;;26.00;14.80;;;;;;;-7.62;100.00;100179.21;105866;1254;73396;-53
2023/02/18 06:24:07;;;;;;;25.70;13.90;;;;;;;-7.52;100.00;100166.95;105998;1255;68447;-57
2023/02/18 06:26:40;;;;;;;25.80;14.40;;;;;;;-7.42;100.00;100158.21;105787;1253;73300;-55
2023/02/18 06:29:09;;;;;;;29.40;16.20;;;;;;;-7.31;100.00;100159.36;105914;1256;63062;-54
2023/02/18 06:31:38;;;;;;;28.80;15.70;;;;;;;-7.18;100.00;100157.92;106136;1254;61099;-55
2023/02/18 06:34:11;;;;;;;27.80;14.50;;;;;;;-7.05;100.00;100155.63;105782;1254;74246;-54
2023/02/18 06:36:39;;;;;;;29.20;14.20;;;;;;;-6.94;100.00;100146.46;105751;1256;67455;-55
2023/02/18 06:39:08;;;;;;;25.60;14.00;;;;;;;-6.84;100.00;100147.52;105939;1253;73408;-55
2023/02/18 06:41:39;;;;;;;25.60;15.30;;;;;;;-6.75;100.00;100148.27;105949;1256;62493;-54
2023/02/18 06:44:08;;;;;;;26.70;15.40;;;;;;;-6.70;100.00;100144.09;105796;1252;60935;-54
2023/02/18 06:46:37;;;;;;;23.50;14.70;;;;;;;-6.67;100.00;100136.86;105878;1256;75613;-55
2023/02/18 06:49:06;;;;;;;27.40;14.90;;;;;;;-6.61;100.00;100128.45;105890;1251;68402;-55
2023/02/18 06:51:35;;;;;;;29.00;14.00;;;;;;;-6.56;100.00;100115.38;106129;1252;73173;-55
2023/02/18 06:54:04;;;;;;;25.40;15.00;;;;;;;-6.49;100.00;100108.75;105807;1256;62949;-53
2023/02/18 06:56:33;;;;;;;31.40;16.60;;;;;;;-6.41;100.00;100101.73;105931;1254;60888;-56
2023/02/18 06:59:02;;;;;;;31.80;16.20;;;;;;;-6.34;100.00;100092.25;105952;1251;73095;-54
2023/02/18 07:01:30;;;;;;;27.20;16.00;;;;;;;-6.25;100.00;100079.77;105862;1255;67771;-55
2023/02/18 07:03:59;;;;;;;30.10;16.60;;;;;;;-6.16;100.00;100077.92;105775;1256;73623;-56
2023/02/18 07:06:30;;;;;;;31.30;14.60;;;;;;;-6.07;100.00;100079.84;105906;1253;61489;-55
2023/02/18 07:08:58;;;;;;;25.50;14.30;;;;;;;-6.00;100.00;100076.77;105842;1255;61319;-55
2023/02/18 07:11:27;;;;;;;30.20;14.90;;;;;;;-5.95;100.00;100071.08;106024;1254;74462;-55
2023/02/18 07:13:56;;;;;;;31.40;15.20;;;;;;;-5.93;100.00;100056.23;106054;1253;68135;-55
2023/02/18 07:16:25;;;;;;;29.70;16.30;;;;;;;-5.89;100.00;100046.88;105584;1256;74321;-56
2023/02/18 07:18:55;;;;;;;30.70;16.00;;;;;;;-5.84;100.00;100048.95;105836;1255;62733;-55
2023/02/18 07:21:24;;;;;;;32.50;16.90;;;;;;;-5.78;100.00;100044.54;105823;1255;60580;-55
2023/02/18 07:23:53;;;;;;;32.50;17.00;;;;;;;-5.71;100.00;100043.83;105936;1256;72466;-55
2023/02/18 07:26:22;;;;;;;29.80;16.00;;;;;;;-5.66;100.00;100043.41;106014;1253;68990;-56
2023/02/18 07:28:51;;;;;;;34.30;17.60;;;;;;;-5.65;100.00;100034.88;105669;1253;74225;-54
2023/02/18 07:31:20;;;;;;;32.70;17.00;;;;;;;-5.60;100.00;100035.11;105764;1253;62634;-54
2023/02/18 07:33:48;;;;;;;29.50;15.90;;;;;;;-5.54;100.00;100032.08;105848;1253;61866;-55
2023/02/18 07:36:17;;;;;;;27.80;16.90;;;;;;;-5.49;100.00;100023.97;106030;1256;74582;-54
2023/02/18 07:38:45;;;;;;;29.80;17.20;;;;;;;-5.43;100.00;100023.46;105799;1253;67904;-54
2023/02/18 07:41:19;;;;;;;38.40;18.90;;;;;;;-5.36;100.00;100019.70;105872;1253;74215;-55
2023/02/18 07:43:48;;;;;;;36.20;19.10;;;;;;;-5.29;100.00;100012.03;105925;1253;59691;-55
2023/02/18 07:46:16;;;;;;;32.70;18.10;;;;;;;-5.21;100.00;100004.92;106037;1250;61571;-57
2023/02/18 07:48:45;;;;;;;37.20;21.60;;;;;;;-5.10;100.00;99994.84;105930;1251;73945;-55
2023/02/18 07:51:16;;;;;;;35.40;22.90;;;;;;;-5.01;100.00;99985.50;105962;1256;67873;-55
2023/02/18 07:53:48;;;;;;;34.80;19.60;;;;;;;-4.92;100.00;99987.98;105860;1253;74031;-56
2023/02/18 07:56:17;;;;;;;34.20;20.00;;;;;;;-4.79;100.00;99985.23;105942;1253;61147;-55
2023/02/18 07:58:45;;;;;;;31.50;20.00;;;;;;;-4.68;100.00;99977.23;105896;1254;59536;-55
2023/02/18 08:01:14;;;;;;;31.30;17.80;;;;;;;-4.58;100.00;99970.91;105870;1256;74761;-55
2023/02/18 08:03:43;;;;;;;32.10;18.50;;;;;;;-4.51;100.00;99962.67;105950;1253;68610;-57
2023/02/18 08:06:24;;;;;;;35.20;19.20;;;;;;;-4.45;100.00;99957.70;106058;1255;74248;-57
2023/02/18 08:08:52;;;;;;;29.10;16.60;;;;;;;-4.37;100.00;99957.55;105689;1258;59848;-55
2023/02/18 08:11:21;;;;;;;34.40;19.30;;;;;;;-4.30;100.00;99947.95;105903;1253;60821;-57
2023/02/18 08:13:50;;;;;;;37.90;19.40;;;;;;;-4.23;100.00;99933.09;105866;1255;73460;-55
2023/02/18 08:16:19;;;;;;;57.00;35.70;;;;;;;-4.16;100.00;99932.80;105783;1253;67910;-55
2023/02/18 08:18:49;;;;;;;42.10;23.80;;;;;;;-4.08;100.00;99925.68;105917;1256;74208;-55
2023/02/18 08:21:18;;;;;;;38.60;21.80;;;;;;;-3.97;100.00;99921.25;106092;1256;60936;-57
2023/02/18 08:23:47;;;;;;;33.10;20.50;;;;;;;-3.85;100.00;99910.09;105839;1255;60802;-55
2023/02/18 08:26:17;;;;;;;35.50;20.40;;;;;;;-3.75;100.00;99903.34;105830;1253;72025;-56
2023/02/18 08:28:47;;;;;;;35.10;21.20;;;;;;;-3.65;100.00;99894.36;105824;1256;69141;-54
2023/02/18 08:31:21;;;;;;;32.70;19.20;;;;;;;-3.54;100.00;99888.56;105983;1253;73239;-55
2023/02/18 08:33:50;;;;;;;29.70;17.90;;;;;;;-3.41;100.00;99886.65;105872;1256;60494;-56
2023/02/18 08:36:19;;;;;;;33.90;18.60;;;;;;;-3.26;100.00;99877.51;105892;1256;60604;-54
2023/02/18 08:38:47;;;;;;;30.90;17.40;;;;;;;-3.09;100.00;99872.75;105823;1253;72527;-56
2023/02/18 08:41:17;;;;;;;32.20;18.40;;;;;;;-2.95;100.00;99868.43;105681;1256;67996;-55
2023/02/18 08:43:46;;;;;;;33.10;20.30;;;;;;;-2.87;100.00;99859.99;105886;1256;72419;-57
2023/02/18 08:46:15;;;;;;;27.90;18.10;;;;;;;-2.78;100.00;99858.23;106011;1252;61850;-55
2023/02/18 08:49:03;;;;;;;28.40;18.40;;;;;;;-2.67;100.00;99850.30;105994;1252;61274;-54
2023/02/18 08:51:33;;;;;;;45.30;32.90;;;;;;;-2.56;100.00;99844.39;105799;1251;73926;-56
2023/02/18 08:54:01;;;;;;;29.30;19.00;;;;;;;-2.45;100.00;99838.00;105414;1256;68082;-55
2023/02/18 08:56:32;;;;;;;24.90;16.90;;;;;;;-2.35;100.00;99832.02;105825;1254;74537;-56
2023/02/18 08:59:00;;;;;;;21.70;13.40;;;;;;;-2.24;100.00;99836.63;105800;1256;61626;-54
2023/02/18 09:01:29;;;;;;;20.50;12.00;;;;;;;-2.14;100.00;99829.98;106085;1255;60853;-56
2023/02/18 09:03:58;;;;;;;19.80;12.10;;;;;;;-2.07;100.00;99828.27;105868;1255;73797;-55
2023/02/18 09:06:27;;;;;;;20.40;11.40;;;;;;;-2.04;100.00;99825.33;105920;1256;67738;-55
2023/02/18 09:08:55;;;;;;;19.80;11.40;;;;;;;-2.00;100.00;99822.13;105842;1256;74234;-55
2023/02/18 09:11:24;;;;;;;17.70;10.70;;;;;;;-1.94;100.00;99814.90;105865;1256;61096;-54
2023/02/18 09:13:55;;;;;;;17.40;10.40;;;;;;;-1.84;100.00;99809.34;105851;1256;61155;-54
2023/02/18 09:16:23;;;;;;;15.60;10.70;;;;;;;-1.73;100.00;99797.10;105887;1256;75259;-57
2023/02/18 09:18:53;;;;;;;16.50;10.00;;;;;;;-1.63;100.00;99792.14;105838;1256;67551;-54
2023/02/18 09:21:22;;;;;;;16.80;10.60;;;;;;;-1.59;100.00;99788.43;105883;1251;73589;-56
2023/02/18 09:23:52;;;;;;;17.20;10.30;;;;;;;-1.55;100.00;99783.70;105860;1253;61069;-54
2023/02/18 09:26:25;;;;;;;16.00;10.10;;;;;;;-1.48;100.00;99778.68;105862;1256;60595;-54
2023/02/18 09:28:56;;;;;;;17.20;10.30;;;;;;;-1.41;100.00;99770.67;105946;1251;74291;-54
2023/02/18 09:31:26;;;;;;;15.90;9.90;;;;;;;-1.35;100.00;99764.07;105933;1255;67586;-55
2023/02/18 09:33:57;;;;;;;17.50;10.30;;;;;;;-1.29;100.00;99756.80;105869;1256;73536;-56
2023/02/18 09:36:27;;;;;;;13.50;9.10;;;;;;;-1.25;100.00;99745.89;105929;1257;60402;-54
2023/02/18 09:38:55;;;;;;;15.60;9.80;;;;;;;-1.17;100.00;99744.78;105864;1254;60874;-54
2023/02/18 09:41:37;;;;;;;17.10;11.30;;;;;;;-1.10;100.00;99740.28;105980;1255;75198;-57
2023/02/18 09:44:13;;;;;;;17.40;10.60;;;;;;;-1.07;100.00;99727.25;105943;1253;69139;-55
2023/02/18 09:46:50;;;;;;;17.30;10.60;;;;;;;-1.05;100.00;99728.51;105846;1257;73135;-54
2023/02/18 09:49:22;;;;;;;29.80;17.60;;;;;;;-1.04;100.00;99723.12;105862;1251;60473;-58
2023/02/18 09:51:50;;;;;;;;;;;;;;;-1.07;100.00;99719.11;105689;1255;62087;-54
2023/02/18 09:54:19;;;;;;;18.80;11.10;;;;;;;-1.13;100.00;99710.84;105893;1252;75097;-56
2023/02/18 09:56:48;;;;;;;20.90;11.50;;;;;;;-1.17;100.00;99703.38;106167;1254;67540;-57
2023/02/18 09:59:22;;;;;;;16.40;10.50;;;;;;;-1.19;100.00;99698.36;105875;1251;73664;-54
2023/02/18 10:01:51;;;;;;;16.60;10.00;;;;;;;-1.19;100.00;99694.31;105665;1256;61322;-55
2023/02/18 10:04:26;;;;;;;18.00;11.20;;;;;;;-1.19;100.00;99696.39;105882;1256;60821;-55
2023/02/18 10:06:55;;;;;;;17.70;10.30;;;;;;;-1.19;100.00;99688.54;105665;1254;75567;-55
2023/02/18 10:09:26;;;;;;;14.50;9.30;;;;;;;-1.18;100.00;99675.64;105539;1257;67610;-55
2023/02/18 10:11:55;;;;;;;;;;;;;;;-1.19;100.00;99657.14;105799;1255;74110;-54
2023/02/18 10:14:24;;;;;;;18.10;10.70;;;;;;;-1.19;100.00;99643.82;105597;1253;60578;-56
2023/02/18 10:16:53;;;;;;;19.00;10.70;;;;;;;-1.22;100.00;99639.42;105428;1257;61744;-55
2023/02/18 10:19:37;;;;;;;18.70;10.70;;;;;;;-1.25;100.00;99625.90;105870;1256;75497;-57
2023/02/18 10:22:06;;;;;;;19.30;11.90;;;;;;;-1.27;100.00;99612.78;105585;1256;67787;-54
2023/02/18 10:24:39;;;;;;;21.20;12.10;;;;;;;-1.26;100.00;99604.63;105843;1254;74042;-58
2023/02/18 10:27:07;;;;;;;17.60;11.60;;;;;;;-1.21;100.00;99604.59;105841;1262;60296;-55
2023/02/18 10:29:37;;;;;;;20.50;12.00;;;;;;;-1.13;100.00;99594.77;105838;1256;61870;-56
2023/02/18 10:32:09;;;;;;;21.00;12.20;;;;;;;-1.06;100.00;99586.52;105933;1251;74328;-55
2023/02/18 10:34:47;;;;;;;22.30;12.00;;;;;;;-1.00;100.00;99583.61;106207;1255;67583;-54
2023/02/18 10:37:37;;;;;;;22.30;12.10;;;;;;;-0.94;100.00;99577.68;105874;1251;72773;-54
2023/02/18 10:40:11;;;;;;;24.10;12.40;;;;;;;-0.87;100.00;99574.70;106048;1254;61596;-58
2023/02/18 10:42:53;;;;;;;22.10;11.90;;;;;;;-0.82;100.00;99569.31;105971;1255;62036;-54
2023/02/18 10:45:35;;;;;;;18.10;11.60;;;;;;;-0.80;100.00;99565.61;105686;1254;75413;-54
2023/02/18 10:48:27;;;;;;;22.00;11.20;;;;;;;-0.78;100.00;99554.15;105874;1256;67638;-55
2023/02/18 10:50:59;;;;;;;20.60;11.80;;;;;;;-0.77;100.00;99546.55;105979;1262;74205;-55
2023/02/18 10:53:35;;;;;;;23.90;12.00;;;;;;;-0.74;100.00;99536.60;105992;1257;63015;-59
2023/02/18 10:56:05;;;;;;;21.40;12.90;;;;;;;-0.71;100.00;99532.59;105877;1251;61918;-56
2023/02/18 10:58:35;;;;;;;20.00;12.60;;;;;;;-0.71;100.00;99523.09;105823;1260;74400;-59
2023/02/18 11:01:07;;;;;;;21.80;12.40;;;;;;;-0.74;100.00;99521.21;106107;1254;68064;-58
2023/02/18 11:03:46;;;;;;;23.20;15.80;;;;;;;-0.78;100.00;99512.05;105874;1255;73951;-54
2023/02/18 11:06:28;;;;;;;19.70;12.20;;;;;;;-0.83;100.00;99509.60;105874;1263;62594;-55
2023/02/18 11:08:58;;;;;;;25.40;13.70;;;;;;;-0.92;100.00;99503.36;105901;1256;62159;-55
2023/02/18 11:11:29;;;;;;;17.80;11.40;;;;;;;-1.05;100.00;99483.41;105697;1251;74922;-56
2023/02/18 11:14:01;;;;;;;19.80;12.00;;;;;;;-1.15;100.00;99474.38;105748;1257;68696;-58
2023/02/18 11:16:43;;;;;;;22.40;11.90;;;;;;;-1.21;100.00;99464.63;106149;1254;72927;-58
2023/02/18 11:19:37;;;;;;;18.70;11.40;;;;;;;-1.22;100.00;99453.60;105770;1257;63359;-55
2023/02/18 11:22:21;;;;;;;24.10;12.00;;;;;;;-1.17;100.00;99444.73;106009;1251;61862;-56
2023/02/18 11:24:54;;;;;;;19.80;11.10;;;;;;;-1.11;100.00;99435.17;105696;1256;73339;-56
2023/02/18 11:27:25;;;;;;;20.50;11.70;;;;;;;-1.00;100.00;99425.91;105990;1255;68512;-54
2023/02/18 11:29:58;;;;;;;21.70;13.40;;;;;;;-0.92;100.00;99418.59;105841;1256;74475;-55
2023/02/18 11:32:27;;;;;;;21.50;11.60;;;;;;;-0.89;100.00;99402.29;105918;1251;61234;-55